createdAt,value
2019-05-12T00:02:09.426Z,97466.05
2019-05-12T00:04:42.251Z,97470.53
2019-05-12T00:07:14.058Z,97468.61
2019-05-12T00:09:47.959Z,97471.08
2019-05-12T00:12:19.146Z,97468.82
2019-05-12T00:14:50.964Z,97466.72
2019-05-12T00:17:28.304Z,97464.47
2019-05-12T00:19:59.258Z,97469.15
2019-05-12T00:22:38.075Z,97470.10
2019-05-12T00:25:09.652Z,97474.80
2019-05-12T00:27:43.447Z,97474.70
2019-05-12T00:30:34.297Z,97478.80
2019-05-12T00:33:09.733Z,97475.38
2019-05-12T00:35:41.534Z,97464.88
2019-05-12T00:38:13.288Z,97462.41
2019-05-12T00:40:44.977Z,97465.13
2019-05-12T00:43:18.749Z,97462.16
2019-05-12T00:45:50.405Z,97462.28
2019-05-12T00:48:22.570Z,97460.27
2019-05-12T00:50:55.042Z,97463.45
2019-05-12T00:53:39.478Z,97470.59
2019-05-12T00:56:00.741Z,97466.23
2019-05-12T00:58:32.545Z,97468.91
2019-05-12T01:01:07.972Z,97471.41
2019-05-12T01:03:38.945Z,97474.59
2019-05-12T01:06:10.487Z,97471.66
2019-05-12T01:08:42.751Z,97476.13
2019-05-12T01:11:14.357Z,97471.99
2019-05-12T01:13:46.081Z,97471.73
2019-05-12T01:16:18.470Z,97471.36
2019-05-12T01:18:50.225Z,97470.95
2019-05-12T01:21:22.297Z,97471.50
2019-05-12T01:24:00.473Z,97475.55
2019-05-12T01:26:28.421Z,97473.55
2019-05-12T01:29:00.165Z,97468.38
2019-05-12T01:31:34.829Z,97475.69
2019-05-12T01:34:08.105Z,97477.11
2019-05-12T01:36:40.245Z,97473.09
2019-05-12T01:39:13.353Z,97472.14
2019-05-12T01:41:45.361Z,97480.68
2019-05-12T01:44:18.399Z,97472.80
2019-05-12T01:46:50.223Z,97474.84
2019-05-12T01:49:21.977Z,97476.35
2019-05-12T01:51:53.757Z,97470.58
2019-05-12T01:54:27.820Z,97472.45
2019-05-12T01:57:00.589Z,97480.02
2019-05-12T01:59:32.493Z,97475.75
2019-05-12T02:02:04.169Z,97470.91
2019-05-12T02:04:54.583Z,97471.60
2019-05-12T02:07:27.997Z,97464.89
2019-05-12T02:09:59.808Z,97473.02
2019-05-12T02:12:32.980Z,97472.59
2019-05-12T02:15:07.977Z,97469.42
2019-05-12T02:17:39.368Z,97469.75
2019-05-12T02:20:12.676Z,97467.48
2019-05-12T02:22:44.741Z,97466.31
2019-05-12T02:25:18.472Z,97465.36
2019-05-12T02:27:50.083Z,97468.20
2019-05-12T02:30:22.412Z,97472.27
2019-05-12T02:32:59.186Z,97476.75
2019-05-12T02:35:28.786Z,97476.29
2019-05-12T02:38:00.495Z,97479.00
2019-05-12T02:40:34.623Z,97485.55
2019-05-12T02:43:06.044Z,97481.45
2019-05-12T02:45:37.877Z,97482.37
2019-05-12T02:48:09.754Z,97488.50
2019-05-12T02:50:44.434Z,97486.00
2019-05-12T02:53:15.212Z,97489.73
2019-05-12T02:55:54.200Z,97494.20
2019-05-12T02:58:29.309Z,97498.45
2019-05-12T03:01:05.484Z,97501.04
2019-05-12T03:03:40.228Z,97502.80
2019-05-12T03:06:15.015Z,97503.52
2019-05-12T03:08:46.009Z,97505.84
2019-05-12T03:11:20.357Z,97500.64
2019-05-12T03:13:54.843Z,97515.36
2019-05-12T03:16:28.264Z,97519.56
2019-05-12T03:19:04.888Z,97520.05
2019-05-12T03:21:35.901Z,97520.76
2019-05-12T03:24:08.177Z,97518.89
2019-05-12T03:26:40.130Z,97521.99
2019-05-12T03:29:14.786Z,97517.91
2019-05-12T03:31:48.803Z,97522.75
2019-05-12T03:34:20.627Z,97522.75
2019-05-12T03:36:59.075Z,97523.09
2019-05-12T03:39:27.135Z,97536.56
2019-05-12T03:41:59.131Z,97538.58
2019-05-12T03:44:31.141Z,97544.61
2019-05-12T03:47:05.034Z,97545.31
2019-05-12T03:49:36.762Z,97547.83
2019-05-12T03:52:08.709Z,97548.80
2019-05-12T03:54:40.906Z,97547.30
2019-05-12T03:57:14.971Z,97551.34
2019-05-12T03:59:47.060Z,97551.34
2019-05-12T04:02:20.005Z,97563.15
2019-05-12T04:04:55.292Z,97563.15
2019-05-12T04:07:27.097Z,97560.59
2019-05-12T04:09:59.618Z,97559.66
2019-05-12T04:12:34.653Z,97566.30
2019-05-12T04:15:08.542Z,97571.66
2019-05-12T04:17:48.924Z,97568.58
2019-05-12T04:20:25.768Z,97574.12
2019-05-12T04:22:58.966Z,97579.92
2019-05-12T04:25:51.646Z,97585.70
2019-05-12T04:28:10.997Z,97592.66
2019-05-12T04:30:44.518Z,97599.86
2019-05-12T04:33:25.404Z,97599.82
2019-05-12T04:35:56.989Z,97602.77
2019-05-12T04:38:30.206Z,97603.81
2019-05-12T04:41:05.921Z,97607.82
2019-05-12T04:43:38.770Z,97609.45
2019-05-12T04:46:14.567Z,97617.93
2019-05-12T04:48:46.872Z,97616.33
2019-05-12T04:51:24.962Z,97622.42
2019-05-12T04:53:57.251Z,97618.23
2019-05-12T04:56:29.785Z,97622.52
2019-05-12T04:59:05.028Z,97626.97
2019-05-12T05:01:37.046Z,97627.84
2019-05-12T05:04:10.964Z,97632.47
2019-05-12T05:06:44.844Z,97629.66
2019-05-12T05:09:24.592Z,97626.00
2019-05-12T05:11:57.690Z,97625.16
2019-05-12T05:14:33.873Z,97627.64
2019-05-12T05:17:07.698Z,97636.23
2019-05-12T05:19:40.064Z,97633.41
2019-05-12T05:22:13.723Z,97627.00
2019-05-12T05:24:45.883Z,97628.78
2019-05-12T05:27:17.778Z,97633.81
2019-05-12T05:29:50.710Z,97640.77
2019-05-12T05:32:23.364Z,97643.36
2019-05-12T05:34:57.899Z,97639.78
2019-05-12T05:37:30.761Z,97642.80
2019-05-12T05:40:04.756Z,97640.53
2019-05-12T05:42:36.805Z,97643.70
2019-05-12T05:45:10.586Z,97644.99
2019-05-12T05:47:44.445Z,97654.34
2019-05-12T05:50:18.341Z,97647.16
2019-05-12T05:52:49.998Z,97658.70
2019-05-12T05:55:23.354Z,97663.46
2019-05-12T05:57:55.161Z,97666.34
2019-05-12T06:00:27.169Z,97658.64
2019-05-12T06:02:58.898Z,97660.48
2019-05-12T06:05:31.096Z,97661.61
2019-05-12T06:08:04.149Z,97673.46
2019-05-12T06:10:40.378Z,97669.67
2019-05-12T06:13:14.415Z,97676.25
2019-05-12T06:15:47.622Z,97683.64
2019-05-12T06:18:23.809Z,97680.25
2019-05-12T06:20:55.606Z,97691.33
2019-05-12T06:23:34.815Z,97684.36
2019-05-12T06:26:10.422Z,97685.03
2019-05-12T06:28:48.184Z,97693.31
2019-05-12T06:31:25.265Z,97691.69
2019-05-12T06:33:55.438Z,97698.23
2019-05-12T06:36:28.457Z,97699.11
2019-05-12T06:39:03.957Z,97705.58
2019-05-12T06:41:39.294Z,97698.83
2019-05-12T06:44:17.178Z,97702.67
2019-05-12T06:46:47.518Z,97699.42
2019-05-12T06:49:24.633Z,97701.13
2019-05-12T06:52:02.108Z,97707.92
2019-05-12T06:54:35.364Z,97706.52
2019-05-12T06:57:21.382Z,97700.84
2019-05-12T06:59:50.882Z,97695.78
2019-05-12T07:02:20.857Z,97702.50
2019-05-12T07:04:59.003Z,97701.80
2019-05-12T07:07:33.443Z,97697.77
2019-05-12T07:10:11.813Z,97696.04
2019-05-12T07:12:54.109Z,97699.25
2019-05-12T07:15:16.462Z,97687.67
2019-05-12T07:17:56.950Z,97696.23
2019-05-12T07:20:35.377Z,97688.78
2019-05-12T07:23:05.454Z,97692.30
2019-05-12T07:25:40.461Z,97687.69
2019-05-12T07:28:15.493Z,97699.30
2019-05-12T07:30:50.451Z,97701.59
2019-05-12T07:33:24.324Z,97702.28
2019-05-12T07:36:06.288Z,97707.16
2019-05-12T07:38:43.364Z,97701.31
2019-05-12T07:41:20.353Z,97707.28
2019-05-12T07:43:58.954Z,97707.38
2019-05-12T07:46:39.714Z,97710.77
2019-05-12T07:49:14.140Z,97710.79
2019-05-12T07:51:50.046Z,97701.55
2019-05-12T07:54:23.561Z,97704.88
2019-05-12T07:57:03.552Z,97708.05
2019-05-12T07:59:39.049Z,97715.83
2019-05-12T08:02:07.743Z,97719.36
2019-05-12T08:04:41.146Z,97717.42
2019-05-12T08:07:19.772Z,97716.84
2019-05-12T08:09:50.616Z,97721.91
2019-05-12T08:12:24.026Z,97718.90
2019-05-12T08:14:59.423Z,97719.47
2019-05-12T08:17:36.584Z,97715.81
2019-05-12T08:20:10.122Z,97712.23
2019-05-12T08:22:45.227Z,97713.27
2019-05-12T08:25:24.818Z,97705.42
2019-05-12T08:28:11.091Z,97713.09
2019-05-12T08:30:49.833Z,97720.51
2019-05-12T08:33:14.814Z,97716.46
2019-05-12T08:35:47.592Z,97722.98
2019-05-12T08:38:20.392Z,97720.41
2019-05-12T08:40:54.181Z,97726.55
2019-05-12T08:43:26.971Z,97728.06
2019-05-12T08:46:05.346Z,97733.29
2019-05-12T08:48:34.331Z,97732.55
2019-05-12T08:51:13.912Z,97738.37
2019-05-12T08:53:43.818Z,97742.31
2019-05-12T08:56:19.277Z,97743.84
2019-05-12T08:58:51.358Z,97740.60
2019-05-12T09:01:26.549Z,97748.09
2019-05-12T09:04:05.406Z,97754.98
2019-05-12T09:06:34.581Z,97760.83
2019-05-12T09:09:09.832Z,97754.19
2019-05-12T09:11:44.043Z,97747.55
2019-05-12T09:14:16.648Z,97755.55
2019-05-12T09:16:53.730Z,97764.20
2019-05-12T09:19:27.085Z,97769.31
2019-05-12T09:22:07.196Z,97772.45
2019-05-12T09:24:35.791Z,97761.41
2019-05-12T09:27:09.226Z,97763.70
2019-05-12T09:29:44.065Z,97764.05
2019-05-12T09:32:18.776Z,97768.49
2019-05-12T09:34:57.936Z,97768.48
2019-05-12T09:37:30.925Z,97761.73
2019-05-12T09:40:08.498Z,97764.53
2019-05-12T09:42:43.932Z,97766.35
2019-05-12T09:45:33.429Z,97765.84
2019-05-12T09:48:09.610Z,97762.06
2019-05-12T09:50:45.885Z,97772.44
2019-05-12T09:53:24.030Z,97768.16
2019-05-12T09:55:59.056Z,97770.64
2019-05-12T09:58:37.011Z,97766.50
2019-05-12T10:01:14.368Z,97768.83
2019-05-12T10:03:55.346Z,97770.28
2019-05-12T10:06:41.581Z,97770.45
2019-05-12T10:09:20.089Z,97777.72
2019-05-12T10:12:08.027Z,97780.00
2019-05-12T10:14:45.840Z,97770.75
2019-05-12T10:17:20.356Z,97776.30
2019-05-12T10:19:56.167Z,97780.24
2019-05-12T10:22:39.779Z,97785.23
2019-05-12T10:25:14.197Z,97776.45
2019-05-12T10:27:45.883Z,97777.46
2019-05-12T10:30:18.445Z,97777.75
2019-05-12T10:32:50.155Z,97778.50
2019-05-12T10:35:26.556Z,97791.05
2019-05-12T10:38:00.235Z,97789.63
2019-05-12T10:40:33.616Z,97786.05
2019-05-12T10:43:05.215Z,97784.36
2019-05-12T10:45:38.945Z,97793.70
2019-05-12T10:48:28.483Z,97789.09
2019-05-12T10:51:07.034Z,97790.30
2019-05-12T10:53:43.287Z,97782.68
2019-05-12T10:56:24.934Z,97789.98
2019-05-12T10:59:06.062Z,97797.28
2019-05-12T11:01:47.172Z,97791.19
2019-05-12T11:04:15.146Z,97794.17
2019-05-12T11:06:48.505Z,97804.44
2019-05-12T11:09:21.393Z,97794.52
2019-05-12T11:11:59.855Z,97801.47
2019-05-12T11:14:34.182Z,97802.95
2019-05-12T11:17:09.428Z,97808.27
2019-05-12T11:19:49.294Z,97809.54
2019-05-12T11:22:16.036Z,97806.09
2019-05-12T11:24:47.948Z,97807.45
2019-05-12T11:27:19.540Z,97806.08
2019-05-12T11:29:53.325Z,97800.30
2019-05-12T11:32:28.783Z,97792.27
2019-05-12T11:34:59.455Z,97794.32
2019-05-12T11:37:33.687Z,97799.43
2019-05-12T11:40:05.843Z,97796.33
2019-05-12T11:42:40.088Z,97796.45
2019-05-12T11:45:13.441Z,97793.61
2019-05-12T11:47:47.724Z,97796.45
2019-05-12T11:50:23.899Z,97797.11
2019-05-12T11:52:55.619Z,97803.19
2019-05-12T11:55:31.614Z,97796.63
2019-05-12T11:58:06.877Z,97798.18
2019-05-12T12:00:36.768Z,97810.52
2019-05-12T12:03:13.133Z,97795.55
2019-05-12T12:05:43.724Z,97803.17
2019-05-12T12:08:15.925Z,97801.08
2019-05-12T12:10:49.315Z,97802.95
2019-05-12T12:13:25.620Z,97809.48
2019-05-12T12:15:53.996Z,97802.17
2019-05-12T12:18:25.585Z,97798.83
2019-05-12T12:21:04.151Z,97796.48
2019-05-12T12:23:30.593Z,97794.38
2019-05-12T12:26:03.981Z,97800.29
2019-05-12T12:28:35.563Z,97789.70
2019-05-12T12:31:07.924Z,97794.24
2019-05-12T12:33:41.090Z,97802.17
2019-05-12T12:36:14.528Z,97797.73
2019-05-12T12:38:46.071Z,97798.13
2019-05-12T12:41:17.587Z,97794.59
2019-05-12T12:43:49.090Z,97794.27
2019-05-12T12:46:25.546Z,97805.69
2019-05-12T12:49:00.324Z,97798.20
2019-05-12T12:51:31.021Z,97802.55
2019-05-12T12:54:03.989Z,97790.22
2019-05-12T12:56:36.754Z,97788.09
2019-05-12T12:59:10.498Z,97787.41
2019-05-12T13:01:43.771Z,97784.03
2019-05-12T13:04:15.802Z,97786.34
2019-05-12T13:06:48.029Z,97782.39
2019-05-12T13:09:24.490Z,97784.24
2019-05-12T13:11:53.665Z,97779.45
2019-05-12T13:14:28.488Z,97777.40
2019-05-12T13:16:58.437Z,97773.71
2019-05-12T13:19:33.255Z,97774.51
2019-05-12T13:22:09.021Z,97772.20
2019-05-12T13:24:39.782Z,97768.48
2019-05-12T13:27:13.843Z,97767.44
2019-05-12T13:29:45.349Z,97768.75
2019-05-12T13:32:16.868Z,97766.85
2019-05-12T13:34:51.603Z,97769.19
2019-05-12T13:37:23.167Z,97770.17
2019-05-12T13:40:00.080Z,97767.16
2019-05-12T13:42:35.770Z,97756.13
2019-05-12T13:45:04.143Z,97755.83
2019-05-12T13:47:39.853Z,97755.42
2019-05-12T13:50:15.541Z,97755.66
2019-05-12T13:52:45.951Z,97754.41
2019-05-12T13:55:18.043Z,97752.86
2019-05-12T13:57:56.290Z,97755.02
2019-05-12T14:00:23.097Z,97762.97
2019-05-12T14:03:03.282Z,97761.94
2019-05-12T14:05:28.594Z,97759.84
2019-05-12T14:08:00.283Z,97756.87
2019-05-12T14:10:35.550Z,97764.34
2019-05-12T14:13:06.248Z,97760.02
2019-05-12T14:15:37.873Z,97761.61
2019-05-12T14:18:15.326Z,97765.54
2019-05-12T14:20:45.209Z,97761.16
2019-05-12T14:23:17.102Z,97764.98
2019-05-12T14:25:48.748Z,97763.48
2019-05-12T14:28:20.751Z,97767.73
2019-05-12T14:30:54.468Z,97758.69
2019-05-12T14:33:29.891Z,97761.20
2019-05-12T14:36:00.019Z,97763.55
2019-05-12T14:38:33.767Z,97763.02
2019-05-12T14:41:10.068Z,97764.56
2019-05-12T14:43:39.825Z,97761.98
2019-05-12T14:46:13.458Z,97766.17
2019-05-12T14:48:50.509Z,97767.90
2019-05-12T14:51:20.210Z,97769.16
2019-05-12T14:53:53.534Z,97777.11
2019-05-12T14:56:25.274Z,97778.32
2019-05-12T14:59:00.760Z,97772.64
2019-05-12T15:01:44.230Z,97779.16
2019-05-12T15:04:05.368Z,97773.88
2019-05-12T15:06:38.022Z,97765.95
2019-05-12T15:09:11.549Z,97766.66
2019-05-12T15:11:44.085Z,97768.67
2019-05-12T15:14:16.222Z,97774.52
2019-05-12T15:16:48.174Z,97762.31
2019-05-12T15:19:25.884Z,97762.08
2019-05-12T15:21:56.275Z,97763.03
2019-05-12T15:24:27.988Z,97768.95
2019-05-12T15:27:01.004Z,97764.97
2019-05-12T15:29:33.843Z,97761.38
2019-05-12T15:32:08.782Z,97754.52
2019-05-12T15:34:40.932Z,97767.55
2019-05-12T15:37:13.213Z,97760.80
2019-05-12T15:39:47.187Z,97757.36
2019-05-12T15:42:18.995Z,97755.72
2019-05-12T15:44:50.950Z,97756.88
2019-05-12T15:47:27.215Z,97750.89
2019-05-12T15:49:56.101Z,97765.73
2019-05-12T15:52:29.855Z,97759.66
2019-05-12T15:55:04.573Z,97760.13
2019-05-12T15:57:35.703Z,97759.97
2019-05-12T16:00:07.424Z,97762.28
2019-05-12T16:02:44.062Z,97761.05
2019-05-12T16:05:19.994Z,97756.78
2019-05-12T16:07:51.405Z,97760.66
2019-05-12T16:10:23.752Z,97762.36
2019-05-12T16:12:55.448Z,97764.33
2019-05-12T16:15:27.343Z,97762.72
2019-05-12T16:17:59.520Z,97761.92
2019-05-12T16:20:33.438Z,97766.03
2019-05-12T16:23:08.211Z,97758.37
2019-05-12T16:25:40.451Z,97759.75
2019-05-12T16:28:15.581Z,97760.67
2019-05-12T16:30:47.330Z,97763.14
2019-05-12T16:33:20.915Z,97758.89
2019-05-12T16:35:54.555Z,97766.80
2019-05-12T16:38:27.544Z,97766.43
2019-05-12T16:40:59.770Z,97753.91
2019-05-12T16:43:34.913Z,97756.89
2019-05-12T16:46:05.015Z,97755.39
2019-05-12T16:48:37.097Z,97763.14
2019-05-12T16:51:10.026Z,97762.88
2019-05-12T16:53:43.704Z,97762.50
2019-05-12T16:56:20.101Z,97758.61
2019-05-12T16:58:50.617Z,97759.59
2019-05-12T17:01:26.087Z,97757.02
2019-05-12T17:03:56.145Z,97757.83
2019-05-12T17:06:28.691Z,97755.91
2019-05-12T17:09:03.336Z,97754.00
2019-05-12T17:11:37.438Z,97748.98
2019-05-12T17:14:09.055Z,97755.06
2019-05-12T17:16:46.387Z,97760.67
2019-05-12T17:19:15.485Z,97761.49
2019-05-12T17:21:49.567Z,97766.31
2019-05-12T17:24:20.743Z,97765.02
2019-05-12T17:26:52.278Z,97772.23
2019-05-12T17:29:24.393Z,97772.30
2019-05-12T17:31:56.191Z,97767.19
2019-05-12T17:34:28.077Z,97770.76
2019-05-12T17:37:00.501Z,97782.30
2019-05-12T17:39:37.269Z,97780.95
2019-05-12T17:42:05.872Z,97781.63
2019-05-12T17:44:39.057Z,97779.81
2019-05-12T17:47:14.732Z,97779.20
2019-05-12T17:49:44.257Z,97783.03
2019-05-12T17:52:18.614Z,97780.17
2019-05-12T17:54:49.054Z,97778.23
2019-05-12T17:57:20.734Z,97790.58
2019-05-12T17:59:54.411Z,97788.58
2019-05-12T18:02:27.368Z,97790.95
2019-05-12T18:05:01.168Z,97793.97
2019-05-12T18:07:34.267Z,97793.84
2019-05-12T18:10:06.170Z,97802.59
2019-05-12T18:12:44.527Z,97801.52
2019-05-12T18:15:14.676Z,97799.19
2019-05-12T18:17:49.846Z,97798.08
2019-05-12T18:20:20.319Z,97799.76
2019-05-12T18:22:53.586Z,97801.20
2019-05-12T18:25:30.459Z,97798.02
2019-05-12T18:27:59.064Z,97798.27
2019-05-12T18:30:30.737Z,97798.64
2019-05-12T18:33:05.033Z,97795.80
2019-05-12T18:35:37.750Z,97801.02
2019-05-12T18:38:18.065Z,97795.00
2019-05-12T18:40:43.941Z,97802.45
2019-05-12T18:43:15.681Z,97802.08
2019-05-12T18:45:48.641Z,97807.98
2019-05-12T18:48:22.841Z,97804.91
2019-05-12T18:50:54.066Z,97804.68
2019-05-12T18:53:31.524Z,97806.72
2019-05-12T18:55:58.858Z,97804.25
2019-05-12T18:58:32.551Z,97807.09
2019-05-12T19:01:05.469Z,97808.16
2019-05-12T19:03:46.879Z,97807.82
2019-05-12T19:06:11.190Z,97808.66
2019-05-12T19:08:42.794Z,97809.25
2019-05-12T19:11:22.501Z,97806.68
2019-05-12T19:13:51.886Z,97809.05
2019-05-12T19:16:21.086Z,97808.94
2019-05-12T19:18:55.660Z,97809.07
2019-05-12T19:21:26.771Z,97806.94
2019-05-12T19:24:03.419Z,97802.45
2019-05-12T19:26:38.415Z,97799.38
2019-05-12T19:29:09.531Z,97800.67
2019-05-12T19:31:45.268Z,97803.89
2019-05-12T19:34:22.535Z,97805.33
2019-05-12T19:36:50.178Z,97803.91
2019-05-12T19:39:25.080Z,97808.52
2019-05-12T19:41:56.489Z,97803.22
2019-05-12T19:44:30.674Z,97804.86
2019-05-12T19:47:02.226Z,97807.59
2019-05-12T19:49:46.650Z,97810.91
2019-05-12T19:52:08.280Z,97804.30
2019-05-12T19:54:39.955Z,97805.45
2019-05-12T19:57:12.925Z,97808.06
2019-05-12T19:59:50.784Z,97812.75
2019-05-12T20:02:19.873Z,97801.64
2019-05-12T20:04:52.245Z,97802.11
2019-05-12T20:07:24.912Z,97803.64
2019-05-12T20:10:00.605Z,97801.88
2019-05-12T20:12:30.761Z,97803.99
2019-05-12T20:15:03.975Z,97805.66
2019-05-12T20:17:37.387Z,97798.08
2019-05-12T20:20:09.987Z,97800.22
2019-05-12T20:22:43.907Z,97798.79
2019-05-12T20:25:15.633Z,97795.36
2019-05-12T20:27:47.591Z,97788.49
2019-05-12T20:30:21.165Z,97785.19
2019-05-12T20:32:54.178Z,97783.17
2019-05-12T20:35:25.840Z,97770.89
2019-05-12T20:37:57.640Z,97773.02
2019-05-12T20:40:32.261Z,97761.09
2019-05-12T20:43:08.314Z,97761.19
2019-05-12T20:45:40.615Z,97761.66
2019-05-12T20:48:10.651Z,97764.62
2019-05-12T20:50:43.545Z,97762.14
2019-05-12T20:53:15.422Z,97766.72
2019-05-12T20:55:47.085Z,97762.11
2019-05-12T20:58:19.162Z,97765.67
2019-05-12T21:00:53.691Z,97756.67
2019-05-12T21:03:26.005Z,97750.64
2019-05-12T21:06:01.520Z,97748.97
2019-05-12T21:08:33.865Z,97744.98
2019-05-12T21:11:05.517Z,97748.97
2019-05-12T21:13:37.260Z,97744.48
2019-05-12T21:16:17.436Z,97743.78
2019-05-12T21:18:48.056Z,97738.13
2019-05-12T21:21:16.421Z,97738.70
2019-05-12T21:23:53.911Z,97739.55
2019-05-12T21:26:21.943Z,97744.03
2019-05-12T21:28:53.995Z,97732.47
2019-05-12T21:31:29.656Z,97734.23
2019-05-12T21:33:59.093Z,97736.11
2019-05-12T21:36:30.621Z,97731.50
2019-05-12T21:39:08.375Z,97728.91
2019-05-12T21:41:40.644Z,97724.77
2019-05-12T21:44:11.277Z,97728.53
2019-05-12T21:46:46.840Z,97722.05
2019-05-12T21:49:15.897Z,97720.38
2019-05-12T21:51:50.533Z,97721.33
2019-05-12T21:54:20.914Z,97721.11
2019-05-12T21:56:54.294Z,97717.56
2019-05-12T21:59:34.006Z,97717.91
2019-05-12T22:02:01.077Z,97714.84
2019-05-12T22:04:41.055Z,97717.56
2019-05-12T22:07:06.988Z,97714.47
2019-05-12T22:09:41.454Z,97713.51
2019-05-12T22:12:12.650Z,97709.61
2019-05-12T22:14:46.244Z,97717.15
2019-05-12T22:17:18.836Z,97706.89
2019-05-12T22:19:53.443Z,97710.08
2019-05-12T22:22:29.665Z,97703.49
2019-05-12T22:24:58.465Z,97701.98
2019-05-12T22:27:31.004Z,97697.38
2019-05-12T22:30:04.443Z,97701.64
2019-05-12T22:32:36.196Z,97702.10
2019-05-12T22:35:13.172Z,97702.78
2019-05-12T22:37:41.175Z,97695.86
2019-05-12T22:40:17.549Z,97696.09
2019-05-12T22:42:50.553Z,97694.66
2019-05-12T22:45:19.889Z,97694.78
2019-05-12T22:47:55.246Z,97699.37
2019-05-12T22:50:27.333Z,97700.09
2019-05-12T22:52:58.357Z,97696.19
2019-05-12T22:55:33.220Z,97699.87
2019-05-12T22:58:04.875Z,97706.00
2019-05-12T23:00:37.576Z,97702.81
2019-05-12T23:03:11.983Z,97704.23
2019-05-12T23:05:44.026Z,97698.23
2019-05-12T23:08:15.745Z,97707.66
2019-05-12T23:10:51.871Z,97708.13
2019-05-12T23:13:21.074Z,97715.55
2019-05-12T23:15:52.906Z,97708.69
2019-05-12T23:18:30.600Z,97707.56
2019-05-12T23:21:09.497Z,97704.84
2019-05-12T23:23:34.000Z,97703.29
2019-05-12T23:26:05.674Z,97710.41
2019-05-12T23:28:40.449Z,97713.80
2019-05-12T23:31:13.343Z,97712.63
2019-05-12T23:33:44.834Z,97713.80
2019-05-12T23:36:19.536Z,97717.34
2019-05-12T23:38:54.256Z,97712.28
2019-05-12T23:41:25.066Z,97715.47
2019-05-12T23:43:56.648Z,97713.13
2019-05-12T23:46:28.377Z,97712.54
2019-05-12T23:49:00.834Z,97711.19
2019-05-12T23:51:34.093Z,97706.46
2019-05-12T23:54:05.958Z,97705.88
2019-05-12T23:56:37.458Z,97697.42
2019-05-12T23:59:08.979Z,97700.56
